Terminal Aerodrome Forecast
Issued by NWS

Home | Current Version | Previous Version | Text Only | Print | Product List | Glossary On
Versions: 1 2 3 4 5 6 7 8 9 10 11 12 13 14 15
000
FTUS45 KRIW 030500
TAFCPR
TAF
KCPR 030523Z 0306/0406 25010KT P6SM SCT100
     FM031200 35008KT P6SM SCT100 BKN200
     FM031900 04010KT P6SM VCSH SCT050 BKN150
     FM032200 08010G15KT P6SM VCTS SCT050CB BKN100
     FM040400 08010G15KT P6SM VCSH BKN050=

USA.gov is the U.S. government's official web portal to all federal, state and local government web resources and services.